Wandering River, Canada
Current Conditions -  °F | °C
As of 8:00 AM on Friday 19 Dec 2014 (Local Time) from CYZH Reporting Station
Haze Haze  
Wind Chill: -10°   Ceiling: Unl
Heat Index:   Visibility: 3mi
Dew Point:   Wind: 14mph
Humidity: 92%   Direction: 100°E
Pressure: 29.72"   Gusts: 22mph
Location:  55.2°N, 112.47°W
Report Text: CYZH 191500Z AUTO 10012G19KT 3SM BR FEW005 M14/M15 A2972 RMK SLP113
Loading
Personal Weather Stations






























Interactive Weather Map New forecast layout! Learn more

10-Day Weather Forecast

Advertisements
Track Severe Weather on mobile